Time;durP1;ratioP1;P1;durP2;ratioP2;P2;SDS_P1;SDS_P2;PMS_P1;PMS_P2;Temp;Humidity;BMP_temperature;BMP_pressure;BME280_temperature;BME280_humidity;BME280_pressure;Samples;Min_cycle;Max_cycle;Signal;HPM_P1;HPM_P2
2020/12/27 00:01:04;;;;;;;;;87.50;62.00;;;;;-3.70;89.21;100392.09;4971457;28;8842;-55
2020/12/27 00:03:30;;;;;;;;;80.75;54.50;;;;;-3.66;89.13;100388.63;4976380;28;8877;-55
2020/12/27 00:05:57;;;;;;;;;88.50;58.00;;;;;-3.50;89.27;100392.22;4973275;28;8893;-52
2020/12/27 00:08:24;;;;;;;;;77.50;55.25;;;;;-3.56;89.42;100386.06;4957955;28;9694;-53
2020/12/27 00:10:51;;;;;;;;;71.25;52.50;;;;;-3.60;89.07;100388.69;4973505;28;8900;-54
2020/12/27 00:13:18;;;;;;;;;68.50;49.00;;;;;-3.40;88.95;100376.53;4976589;28;8880;-53
2020/12/27 00:15:45;;;;;;;;;76.25;51.25;;;;;-3.33;87.28;100373.09;4975092;28;8830;-53
2020/12/27 00:18:12;;;;;;;;;70.50;50.00;;;;;-3.81;88.24;100371.91;4974433;28;9558;-54
2020/12/27 00:20:38;;;;;;;;;73.25;48.25;;;;;-3.90;89.00;100374.44;4972851;28;8933;-56
2020/12/27 00:23:06;;;;;;;;;79.00;55.75;;;;;-4.00;89.42;100375.25;4974197;28;8838;-55
2020/12/27 00:25:39;;;;;;;;;77.25;55.25;;;;;-4.06;89.70;100372.56;4980662;28;8869;-54
2020/12/27 00:28:06;;;;;;;;;81.75;52.75;;;;;-4.15;89.59;100377.75;4975920;28;8873;-54
2020/12/27 00:30:33;;;;;;;;;76.00;54.25;;;;;-4.05;90.28;100379.59;4982296;28;8972;-55
2020/12/27 00:32:59;;;;;;;;;73.25;48.25;;;;;-4.23;90.41;100372.44;4983722;28;8854;-51
2020/12/27 00:35:26;;;;;;;;;75.00;52.00;;;;;-4.31;90.21;100371.47;4976110;28;8842;-55
2020/12/27 00:37:53;;;;;;;;;80.25;56.75;;;;;-4.23;89.91;100370.69;4984131;28;8944;-53
2020/12/27 00:40:20;;;;;;;;;72.75;54.75;;;;;-4.30;90.88;100368.84;4985137;28;8820;-55
2020/12/27 00:42:47;;;;;;;;;87.00;58.00;;;;;-4.00;90.11;100373.50;4976659;28;8885;-53
2020/12/27 00:45:14;;;;;;;;;84.25;55.75;;;;;-4.20;90.04;100369.81;4986184;28;8824;-55
2020/12/27 00:47:41;;;;;;;;;77.75;57.00;;;;;-4.17;90.22;100376.84;4976974;28;8864;-56
2020/12/27 00:50:08;;;;;;;;;81.00;57.00;;;;;-4.27;89.40;100374.13;4979241;28;8837;-53
2020/12/27 00:52:34;;;;;;;;;71.25;53.50;;;;;-4.28;90.02;100368.88;4984293;28;8895;-55
2020/12/27 00:55:01;;;;;;;;;77.50;57.50;;;;;-4.15;89.69;100359.38;4985107;28;8863;-54
2020/12/27 00:57:28;;;;;;;;;70.75;49.00;;;;;-4.11;89.95;100366.41;4960085;28;8848;-55
2020/12/27 00:59:55;;;;;;;;;73.00;52.50;;;;;-4.46;90.12;100356.47;4986557;28;8832;-53
2020/12/27 01:02:22;;;;;;;;;91.75;58.00;;;;;-4.50;90.51;100344.19;4988402;28;8836;-57
2020/12/27 01:04:58;;;;;;;;;67.75;52.00;;;;;-4.50;91.46;100352.94;4975062;28;8842;-55
2020/12/27 01:07:25;;;;;;;;;91.75;62.00;;;;;-4.63;90.51;100344.09;4983791;28;9786;-54
2020/12/27 01:09:51;;;;;;;;;78.75;49.00;;;;;-4.40;90.29;100348.66;4989682;28;9543;-58
2020/12/27 01:12:18;;;;;;;;;71.00;51.75;;;;;-4.60;90.58;100342.38;4983177;28;8885;-54
2020/12/27 01:14:45;;;;;;;;;81.00;57.50;;;;;-4.15;90.97;100335.78;4989077;28;8868;-56
2020/12/27 01:17:13;;;;;;;;;80.00;60.75;;;;;-4.36;90.53;100329.50;4958333;28;8845;-55
2020/12/27 01:19:40;;;;;;;;;72.25;57.75;;;;;-4.57;90.19;100326.66;4985090;28;8833;-54
2020/12/27 01:22:07;;;;;;;;;66.00;53.00;;;;;-4.32;89.84;100318.16;4987640;28;9557;-56
2020/12/27 01:24:33;;;;;;;;;74.50;54.50;;;;;-4.63;91.30;100322.25;4977561;28;8846;-55
2020/12/27 01:27:00;;;;;;;;;72.75;49.00;;;;;-4.43;90.37;100332.91;4982943;28;8870;-53
2020/12/27 01:29:27;;;;;;;;;82.25;55.25;;;;;-4.44;90.14;100329.41;4984733;28;8842;-54
2020/12/27 01:32:00;;;;;;;;;70.50;50.00;;;;;-4.07;90.62;100318.38;4980077;28;8987;-53
2020/12/27 01:34:29;;;;;;;;;59.25;47.75;;;;;-3.97;89.53;100321.06;4978900;28;8830;-51
2020/12/27 01:36:55;;;;;;;;;76.50;50.00;;;;;-4.22;88.84;100300.78;4982180;28;8937;-54
2020/12/27 01:39:22;;;;;;;;;72.75;51.50;;;;;-4.37;89.88;100312.03;4982680;28;8848;-54
2020/12/27 01:41:52;;;;;;;;;54.25;41.50;;;;;-4.26;89.36;100304.25;4981312;28;9598;-55
2020/12/27 01:44:18;;;;;;;;;76.50;49.00;;;;;-4.21;89.37;100306.03;4982851;28;8841;-53
2020/12/27 01:46:47;;;;;;;;;74.00;52.00;;;;;-4.44;89.76;100307.56;4984058;28;8865;-57
2020/12/27 01:49:15;;;;;;;;;72.50;53.75;;;;;-4.56;89.94;100305.72;4986026;28;8922;-54
2020/12/27 01:51:42;;;;;;;;;57.00;45.25;;;;;-4.61;89.83;100314.38;4977571;28;8858;-53
2020/12/27 01:54:09;;;;;;;;;55.00;44.75;;;;;-4.73;90.99;100299.44;4975500;28;8850;-54
2020/12/27 01:56:40;;;;;;;;;55.00;44.50;;;;;-4.24;90.09;100303.41;4982131;28;8941;-51
2020/12/27 01:59:18;;;;;;;;;65.25;48.50;;;;;-4.30;89.84;100300.69;4968426;28;8842;-55
2020/12/27 02:01:45;;;;;;;;;77.25;55.00;;;;;-4.54;89.15;100303.13;4975492;28;8936;-53
2020/12/27 02:04:12;;;;;;;;;80.50;54.25;;;;;-4.71;90.13;100287.25;4967001;28;8832;-53
2020/12/27 02:06:42;;;;;;;;;72.50;52.50;;;;;-4.25;89.43;100285.03;4976173;28;8852;-55
2020/12/27 02:09:12;;;;;;;;;72.75;53.75;;;;;-4.41;89.47;100286.63;4985561;28;8954;-55
2020/12/27 02:11:39;;;;;;;;;70.00;48.75;;;;;-4.82;89.69;100275.75;4985027;28;8851;-56
2020/12/27 02:14:06;;;;;;;;;79.50;56.00;;;;;-4.57;90.11;100274.28;4982265;28;8865;-55
2020/12/27 02:16:33;;;;;;;;;59.00;46.50;;;;;-4.60;89.75;100269.88;4984073;28;8839;-53
2020/12/27 02:19:05;;;;;;;;;69.00;48.00;;;;;-4.56;88.87;100273.41;4965604;28;8879;-55
2020/12/27 02:21:32;;;;;;;;;75.00;50.50;;;;;-4.86;89.60;100267.00;4982998;28;8852;-56
2020/12/27 02:24:00;;;;;;;;;76.75;57.00;;;;;-4.78;89.37;100275.81;4974867;28;8855;-55
2020/12/27 02:26:28;;;;;;;;;73.75;49.00;;;;;-4.86;90.36;100267.00;4979713;28;8850;-56
2020/12/27 02:28:58;;;;;;;;;87.50;64.00;;;;;-4.69;90.62;100273.28;4974354;28;8912;-56
2020/12/27 02:31:26;;;;;;;;;75.75;52.00;;;;;-4.76;90.11;100268.84;4995401;28;8917;-56
2020/12/27 02:33:54;;;;;;;;;67.50;50.25;;;;;-4.51;90.57;100263.84;4979752;28;8908;-56
2020/12/27 02:36:21;;;;;;;;;64.25;48.75;;;;;-4.46;89.38;100251.66;4974103;28;8874;-56
2020/12/27 02:38:48;;;;;;;;;69.50;48.25;;;;;-4.57;90.07;100250.69;4976784;28;8843;-53
2020/12/27 02:41:20;;;;;;;;;63.00;47.50;;;;;-4.72;89.92;100254.91;4971194;28;8862;-56
2020/12/27 02:43:47;;;;;;;;;65.00;46.25;;;;;-4.62;90.45;100255.88;4981902;28;8852;-55
2020/12/27 02:46:33;;;;;;;;;46.00;38.25;;;;;-4.91;89.60;100268.69;4974286;28;8877;-56
2020/12/27 02:49:01;;;;;;;;;68.50;43.50;;;;;-4.49;90.58;100251.63;4976635;28;8848;-53
2020/12/27 02:51:29;;;;;;;;;75.00;51.00;;;;;-4.68;89.20;100261.94;4974076;28;8862;-54
2020/12/27 02:53:58;;;;;;;;;68.50;54.00;;;;;-4.36;89.38;100250.88;4981846;28;8960;-55
2020/12/27 02:56:27;;;;;;;;;74.50;51.00;;;;;-4.72;90.04;100257.53;4974478;28;8855;-56
2020/12/27 02:59:00;;;;;;;;;76.25;54.00;;;;;-4.94;89.94;100239.88;4973681;28;8854;-55
2020/12/27 03:01:27;;;;;;;;;81.50;55.75;;;;;-5.09;91.13;100233.59;4973060;28;8861;-56
2020/12/27 03:03:54;;;;;;;;;73.50;47.50;;;;;-5.12;90.66;100238.81;4975403;28;8963;-56
2020/12/27 03:06:28;;;;;;;;;75.50;53.25;;;;;-5.13;90.94;100234.44;4972956;28;8854;-55
2020/12/27 03:08:55;;;;;;;;;80.75;53.00;;;;;-5.46;90.71;100237.53;4974017;28;8831;-56
2020/12/27 03:11:26;;;;;;;;;71.25;51.75;;;;;-4.71;90.08;100233.09;4973300;28;8873;-56
2020/12/27 03:13:54;;;;;;;;;83.25;55.00;;;;;-5.65;89.30;100225.97;4982019;28;8925;-55
2020/12/27 03:16:21;;;;;;;;;68.25;42.25;;;;;-5.77;89.36;100225.81;4972894;28;8965;-56
2020/12/27 03:18:49;;;;;;;;;48.50;42.00;;;;;-6.03;89.23;100223.78;4973879;28;8836;-54
2020/12/27 03:21:17;;;;;;;;;47.25;38.75;;;;;-5.74;89.31;100232.00;4973547;28;8863;-55
2020/12/27 03:23:44;;;;;;;;;64.00;48.00;;;;;-5.76;88.90;100231.06;4973130;28;9588;-56
2020/12/27 03:26:11;;;;;;;;;52.25;40.25;;;;;-5.58;88.21;100226.91;4974399;28;8870;-56
2020/12/27 03:28:38;;;;;;;;;71.25;46.25;;;;;-5.39;89.05;100228.03;4972206;28;8839;-56
2020/12/27 03:31:05;;;;;;;;;71.25;50.75;;;;;-5.56;88.87;100226.09;4973274;28;8862;-56
2020/12/27 03:33:32;;;;;;;;;71.00;48.75;;;;;-5.58;89.29;100224.31;4981255;28;8882;-54
2020/12/27 03:35:59;;;;;;;;;72.00;47.50;;;;;-5.41;89.50;100208.81;4972912;28;8856;-56
2020/12/27 03:38:26;;;;;;;;;92.75;66.75;;;;;-5.48;90.02;100202.63;4973303;28;9738;-53
2020/12/27 03:40:54;;;;;;;;;86.25;58.50;;;;;-5.43;89.37;100200.06;4973605;28;8909;-56
2020/12/27 03:43:20;;;;;;;;;76.00;53.75;;;;;-5.18;89.38;100202.09;4974608;28;8855;-56
2020/12/27 03:45:47;;;;;;;;;77.00;50.50;;;;;-5.14;89.26;100206.50;4973289;28;8879;-55
2020/12/27 03:48:14;;;;;;;;;71.25;46.50;;;;;-5.19;88.76;100200.34;4974812;28;8841;-56
2020/12/27 03:50:41;;;;;;;;;68.50;50.50;;;;;-5.55;90.16;100206.06;4973654;28;8921;-55
2020/12/27 03:53:08;;;;;;;;;76.25;52.50;;;;;-5.34;90.94;100211.53;4973966;28;8871;-56
2020/12/27 03:55:35;;;;;;;;;69.00;51.00;;;;;-4.93;89.73;100207.56;4973252;28;8842;-54
2020/12/27 03:58:02;;;;;;;;;68.25;51.75;;;;;-5.39;90.14;100204.50;4974457;28;8853;-54
2020/12/27 04:00:30;;;;;;;;;91.00;61.00;;;;;-5.18;89.67;100199.50;4972309;28;8858;-55
2020/12/27 04:02:58;;;;;;;;;86.75;64.50;;;;;-5.24;89.68;100191.59;4976814;28;8853;-55
2020/12/27 04:05:25;;;;;;;;;109.00;78.00;;;;;-5.61;89.84;100193.78;4977023;28;8842;-56
2020/12/27 04:07:52;;;;;;;;;100.75;71.00;;;;;-5.57;89.88;100179.88;4976834;28;8858;-56
2020/12/27 04:10:19;;;;;;;;;103.75;69.75;;;;;-6.02;91.28;100168.03;4976606;28;8957;-56
2020/12/27 04:12:46;;;;;;;;;78.00;52.75;;;;;-6.17;90.92;100162.59;4976650;28;8934;-56
2020/12/27 04:15:13;;;;;;;;;80.25;58.75;;;;;-6.34;90.87;100154.53;4978276;28;8841;-55
2020/12/27 04:17:42;;;;;;;;;68.25;50.25;;;;;-6.31;91.70;100149.34;4976911;28;8888;-55
2020/12/27 04:20:09;;;;;;;;;68.75;44.50;;;;;-6.39;91.60;100148.38;4977244;28;8834;-52
2020/12/27 04:22:35;;;;;;;;;73.75;53.50;;;;;-5.80;90.77;100147.34;4981506;28;8854;-54
2020/12/27 04:25:03;;;;;;;;;81.25;53.00;;;;;-5.67;89.81;100144.00;4976826;28;8998;-54
2020/12/27 04:27:30;;;;;;;;;103.00;69.75;;;;;-5.51;89.05;100135.47;4976505;28;8852;-55
2020/12/27 04:29:57;;;;;;;;;64.50;51.75;;;;;-5.56;89.14;100131.03;4975887;28;8871;-55
2020/12/27 04:32:24;;;;;;;;;71.25;48.25;;;;;-5.40;89.55;100126.84;4977699;28;9584;-55
2020/12/27 04:34:53;;;;;;;;;66.25;50.00;;;;;-5.62;88.71;100129.25;4977438;28;8878;-54
2020/12/27 04:37:27;;;;;;;;;68.25;49.50;;;;;-5.78;90.22;100130.81;4976143;28;8959;-55
2020/12/27 04:39:55;;;;;;;;;58.75;48.00;;;;;-5.38;89.89;100125.13;4983348;28;8825;-56
2020/12/27 04:42:24;;;;;;;;;63.75;49.50;;;;;-5.63;90.51;100137.09;4976956;28;8850;-56
2020/12/27 04:44:55;;;;;;;;;63.50;45.25;;;;;-5.68;89.27;100130.94;4976062;28;8838;-54
2020/12/27 04:47:24;;;;;;;;;54.25;39.50;;;;;-5.78;89.47;100128.19;4975191;28;8878;-56
2020/12/27 04:49:52;;;;;;;;;74.00;52.75;;;;;-5.58;89.58;100128.44;4981297;28;8858;-56
2020/12/27 04:52:23;;;;;;;;;62.75;49.75;;;;;-5.29;89.70;100130.47;4982020;28;8859;-55
2020/12/27 04:54:51;;;;;;;;;74.75;51.50;;;;;-5.24;88.07;100128.78;4977739;28;8873;-55
2020/12/27 04:57:19;;;;;;;;;70.50;48.25;;;;;-5.55;89.49;100128.47;4972773;28;8867;-54
2020/12/27 04:59:48;;;;;;;;;67.50;48.00;;;;;-5.53;89.98;100137.22;4982010;28;8850;-56
2020/12/27 05:02:16;;;;;;;;;70.25;44.50;;;;;-5.34;89.45;100122.56;4974915;28;8873;-55
2020/12/27 05:04:45;;;;;;;;;76.00;53.50;;;;;-5.46;89.93;100122.44;4980582;28;8831;-53
2020/12/27 05:07:22;;;;;;;;;76.75;54.75;;;;;-5.14;89.26;100121.84;4982445;28;8830;-52
2020/12/27 05:09:50;;;;;;;;;74.50;51.00;;;;;-5.13;89.55;100119.28;4970217;28;9788;-54
2020/12/27 05:12:18;;;;;;;;;80.00;51.75;;;;;-5.32;90.04;100122.56;4974185;28;8859;-53
2020/12/27 05:14:46;;;;;;;;;64.00;46.75;;;;;-5.30;89.93;100124.31;4975587;28;8878;-55
2020/12/27 05:17:15;;;;;;;;;76.00;49.25;;;;;-5.29;90.51;100106.91;4974917;28;8851;-54
2020/12/27 05:19:42;;;;;;;;;83.50;51.50;;;;;-5.24;90.47;100105.22;4980551;28;8833;-56
2020/12/27 05:22:11;;;;;;;;;63.00;45.00;;;;;-5.55;90.66;100110.16;4975155;28;8837;-53
2020/12/27 05:24:39;;;;;;;;;63.75;43.50;;;;;-5.21;90.18;100106.97;4982097;28;8917;-56
2020/12/27 05:27:14;;;;;;;;;62.25;47.50;;;;;-5.25;90.76;100098.22;4975678;28;8878;-54
2020/12/27 05:29:42;;;;;;;;;65.75;44.00;;;;;-5.25;89.58;100099.97;4975208;28;8924;-54
2020/12/27 05:32:10;;;;;;;;;49.25;42.50;;;;;-5.53;89.61;100111.03;4974860;28;8840;-56
2020/12/27 05:34:37;;;;;;;;;62.75;41.00;;;;;-5.71;91.14;100104.72;4978109;28;8862;-55
2020/12/27 05:37:06;;;;;;;;;63.75;39.50;;;;;-5.29;90.36;100096.44;4965641;28;8866;-54
2020/12/27 05:39:34;;;;;;;;;64.25;45.00;;;;;-5.30;89.92;100086.81;4974733;28;8849;-56
2020/12/27 05:42:03;;;;;;;;;50.25;42.25;;;;;-5.52;89.85;100060.47;4975081;28;8850;-55
2020/12/27 05:44:31;;;;;;;;;51.50;41.00;;;;;-5.63;90.29;100056.00;4965024;28;8845;-56
2020/12/27 05:46:58;;;;;;;;;56.50;37.50;;;;;-5.79;90.14;100052.38;4981092;28;8855;-55
2020/12/27 05:49:26;;;;;;;;;50.75;38.50;;;;;-5.47;90.13;100052.69;4981682;28;8888;-55
2020/12/27 05:51:56;;;;;;;;;44.75;33.00;;;;;-5.81;89.99;100056.69;4974948;28;8993;-56
2020/12/27 05:54:35;;;;;;;;;73.75;45.50;;;;;-5.35;89.83;100047.53;4976613;28;8867;-53
2020/12/27 05:57:05;;;;;;;;;70.75;44.50;;;;;-5.25;89.38;100039.75;4980507;28;8844;-55
2020/12/27 05:59:35;;;;;;;;;74.00;46.00;;;;;-5.27;89.60;100034.50;4975137;28;8873;-55
2020/12/27 06:02:03;;;;;;;;;72.00;49.00;;;;;-5.47;89.46;100029.13;4974966;28;8949;-56
2020/12/27 06:04:38;;;;;;;;;63.00;43.50;;;;;-5.33;89.45;100029.22;4974764;28;8830;-54
2020/12/27 06:07:07;;;;;;;;;54.00;33.00;;;;;-5.80;90.17;100029.69;4975778;28;8920;-56
2020/12/27 06:09:54;;;;;;;;;77.00;56.25;;;;;-6.06;90.84;100035.53;4974642;28;8849;-55
2020/12/27 06:12:22;;;;;;;;;71.25;47.00;;;;;-5.80;91.21;100030.56;4974049;28;8838;-56
2020/12/27 06:15:09;;;;;;;;;72.00;48.75;;;;;-5.56;90.36;100037.75;4961239;28;8862;-53
2020/12/27 06:18:06;;;;;;;;;69.25;49.50;;;;;-5.93;90.94;100028.69;4957789;28;8830;-55
2020/12/27 06:20:36;;;;;;;;;76.00;50.50;;;;;-6.06;90.77;100026.81;4963308;28;8846;-56
2020/12/27 06:23:05;;;;;;;;;69.75;49.00;;;;;-5.65;90.12;100011.53;4977846;28;9644;-53
2020/12/27 06:25:34;;;;;;;;;57.25;45.25;;;;;-5.41;90.03;100010.84;4978690;28;8889;-54
2020/12/27 06:28:01;;;;;;;;;49.75;35.00;;;;;-5.44;90.10;100005.59;4991373;28;8858;-56
2020/12/27 06:30:43;;;;;;;;;44.75;33.00;;;;;-5.12;90.27;100000.59;4974080;28;9568;-55
2020/12/27 06:33:22;;;;;;;;;42.75;22.00;;;;;-5.17;89.77;100002.31;4988216;28;8865;-53
2020/12/27 06:35:49;;;;;;;;;63.25;47.25;;;;;-4.91;88.66;99989.38;4977250;28;8861;-56
2020/12/27 06:38:25;;;;;;;;;88.50;64.00;;;;;-4.85;88.47;99999.03;4974450;28;8869;-56
2020/12/27 06:41:05;;;;;;;;;63.50;39.75;;;;;-5.18;89.26;99997.09;4976030;28;8886;-56
2020/12/27 06:43:42;;;;;;;;;50.25;36.00;;;;;-5.12;89.32;100000.59;4977772;28;8852;-54
2020/12/27 06:46:27;;;;;;;;;60.00;41.75;;;;;-5.19;88.35;100006.66;4973194;28;8851;-55
2020/12/27 06:49:14;;;;;;;;;62.75;39.00;;;;;-5.32;89.17;100000.47;4967413;28;8870;-55
2020/12/27 06:51:43;;;;;;;;;61.50;46.75;;;;;-5.29;89.59;99999.63;4980345;28;8944;-56
2020/12/27 06:54:12;;;;;;;;;49.75;40.00;;;;;-5.43;90.27;99996.88;4992837;28;8843;-56
2020/12/27 06:56:45;;;;;;;;;62.50;47.50;;;;;-5.52;89.52;99997.69;4978213;28;8884;-54
2020/12/27 06:59:13;;;;;;;;;60.00;44.00;;;;;-5.26;90.41;99998.78;4973990;28;8878;-56
2020/12/27 07:01:40;;;;;;;;;61.75;48.00;;;;;-4.81;89.16;100000.81;4972744;28;8847;-55
2020/12/27 07:04:14;;;;;;;;;72.00;47.50;;;;;-5.07;88.26;100017.22;4974140;28;8842;-56
2020/12/27 07:06:44;;;;;;;;;53.25;42.25;;;;;-4.79;88.75;100011.28;4973195;28;8858;-55
2020/12/27 07:09:22;;;;;;;;;67.50;45.50;;;;;-4.83;88.90;100018.25;4976122;28;8850;-56
2020/12/27 07:12:04;;;;;;;;;45.75;32.50;;;;;-5.04;89.21;100015.50;4974910;28;8848;-55
2020/12/27 07:14:38;;;;;;;;;59.00;46.75;;;;;-4.99;89.49;100016.41;4977819;28;9572;-56
2020/12/27 07:17:06;;;;;;;;;68.00;49.00;;;;;-4.69;88.38;100027.03;4971973;28;8846;-54
2020/12/27 07:19:36;;;;;;;;;72.00;50.50;;;;;-4.58;88.71;100031.47;4972675;28;8868;-56
2020/12/27 07:22:10;;;;;;;;;72.25;50.75;;;;;-4.49;88.30;100021.03;4988332;28;8950;-55
2020/12/27 07:24:40;;;;;;;;;62.25;45.00;;;;;-4.38;87.69;100011.47;4975891;28;8989;-56
2020/12/27 07:27:11;;;;;;;;;66.75;46.25;;;;;-4.55;88.13;100003.56;4973274;28;8926;-56
2020/12/27 07:29:39;;;;;;;;;72.50;53.50;;;;;-4.33;86.28;99996.66;4960190;28;8939;-56
2020/12/27 07:32:07;;;;;;;;;77.75;51.50;;;;;-4.28;86.18;100008.03;4963920;28;8852;-55
2020/12/27 07:34:34;;;;;;;;;71.00;45.50;;;;;-4.53;87.26;99998.31;4981368;28;8852;-56
2020/12/27 07:37:06;;;;;;;;;82.50;59.25;;;;;-4.43;86.88;99981.75;4975690;28;8846;-55
2020/12/27 07:39:53;;;;;;;;;90.50;64.00;;;;;-4.35;86.92;99985.28;4984096;28;8893;-56
2020/12/27 07:42:34;;;;;;;;;65.75;47.50;;;;;-4.34;87.40;99973.94;4984500;28;8866;-55
2020/12/27 07:45:13;;;;;;;;;66.00;47.50;;;;;-4.29;86.42;99969.59;4977228;28;8858;-56
2020/12/27 07:47:41;;;;;;;;;64.25;48.00;;;;;-4.19;86.15;99957.38;4977653;28;8850;-57
2020/12/27 07:50:15;;;;;;;;;64.25;48.50;;;;;-4.25;86.41;99952.13;4977383;28;8834;-55
2020/12/27 07:52:51;;;;;;;;;66.25;44.75;;;;;-4.32;86.92;99951.22;4977369;28;8834;-55
2020/12/27 07:55:24;;;;;;;;;59.25;45.00;;;;;-4.17;85.66;99954.75;4984368;28;8959;-53
2020/12/27 07:57:52;;;;;;;;;39.50;31.75;;;;;-4.15;85.37;99955.66;4977493;28;8910;-54
2020/12/27 08:00:24;;;;;;;;;61.00;48.75;;;;;-3.83;85.13;99966.19;4976343;28;8969;-56
2020/12/27 08:02:51;;;;;;;;;60.50;39.50;;;;;-3.86;84.81;99974.91;4977561;28;8834;-54
2020/12/27 08:05:19;;;;;;;;;71.25;51.50;;;;;-3.83;85.81;99977.53;4977751;28;8909;-55
2020/12/27 08:07:46;;;;;;;;;65.50;49.75;;;;;-3.79;85.26;99995.03;4959812;28;8823;-56
2020/12/27 08:10:25;;;;;;;;;78.00;57.50;;;;;-4.01;86.62;99988.88;4984857;28;8971;-54
2020/12/27 08:13:01;;;;;;;;;93.00;67.00;;;;;-3.71;86.53;99986.28;4979352;28;8848;-56
2020/12/27 08:15:31;;;;;;;;;94.50;63.50;;;;;-3.62;86.26;99981.06;4959397;28;8854;-56
2020/12/27 08:18:04;;;;;;;;;84.00;60.00;;;;;-3.77;85.30;99977.53;4976699;28;8862;-54
2020/12/27 08:20:45;;;;;;;;;89.50;60.75;;;;;-3.64;86.51;99970.56;4976482;28;8842;-56
2020/12/27 08:23:12;;;;;;;;;60.50;47.00;;;;;-3.61;86.13;99959.19;4971699;28;8887;-53
2020/12/27 08:25:40;;;;;;;;;61.25;45.00;;;;;-3.68;86.81;99944.34;4948648;28;8836;-56
2020/12/27 08:28:13;;;;;;;;;86.50;66.75;;;;;-3.70;86.46;99940.84;4965474;28;8884;-55
2020/12/27 08:30:41;;;;;;;;;63.50;49.00;;;;;-3.58;86.02;99935.56;4953120;28;8868;-56
2020/12/27 08:33:19;;;;;;;;;54.25;39.75;;;;;-3.60;86.17;99922.47;4947810;28;8984;-54
2020/12/27 08:35:52;;;;;;;;;46.50;39.00;;;;;-3.67;85.61;99927.72;4955926;28;8852;-53
2020/12/27 08:39:10;;;;;;;;;36.25;25.50;;;;;-3.40;86.11;99930.28;4957334;28;8864;-54
2020/12/27 08:41:43;;;;;;;;;39.00;30.00;;;;;-3.34;84.57;99938.19;4885372;29;8864;-55
2020/12/27 08:44:35;;;;;;;;;52.25;36.00;;;;;-3.09;84.20;99932.88;4883001;29;8962;-52
2020/12/27 08:47:05;;;;;;;;;52.50;33.50;;;;;-3.15;85.28;99943.41;4920546;28;8876;-52
2020/12/27 08:49:38;;;;;;;;;56.00;44.50;;;;;-3.23;85.92;99947.81;4944490;29;8865;-52
2020/12/27 08:52:23;;;;;;;;;46.00;36.75;;;;;-2.98;85.96;99940.72;4958426;28;8840;-53
2020/12/27 08:54:57;;;;;;;;;48.50;38.75;;;;;-2.66;86.21;99956.38;4955905;28;8852;-53
2020/12/27 08:57:25;;;;;;;;;45.25;33.00;;;;;-2.39;83.97;99954.56;4941523;28;8860;-56
2020/12/27 09:00:12;;;;;;;;;63.50;46.50;;;;;-2.67;85.46;99949.41;4951351;28;9562;-55
2020/12/27 09:02:40;;;;;;;;;60.50;48.00;;;;;-2.80;85.25;99927.53;4955758;28;8952;-53
2020/12/27 09:05:10;;;;;;;;;39.50;30.00;;;;;-2.62;83.70;99920.47;4955692;28;8951;-55
2020/12/27 09:07:45;;;;;;;;;58.00;33.75;;;;;-2.25;83.46;99926.41;4955807;28;8867;-52
2020/12/27 09:10:24;;;;;;;;;35.50;22.50;;;;;-2.24;82.79;99909.75;4954624;28;8928;-56
2020/12/27 09:13:08;;;;;;;;;24.00;21.00;;;;;-2.17;82.85;99902.69;4938525;28;8886;-55
2020/12/27 09:15:40;;;;;;;;;33.00;24.00;;;;;-1.83;81.92;99933.16;4962861;28;8899;-54
2020/12/27 09:18:12;;;;;;;;;35.50;26.00;;;;;-2.18;81.34;99922.88;4954962;28;8894;-53
2020/12/27 09:20:41;;;;;;;;;31.75;25.25;;;;;-2.14;82.37;99898.28;4958766;28;8924;-51
2020/12/27 09:23:19;;;;;;;;;41.50;34.50;;;;;-1.89;82.88;99899.00;4964773;28;8890;-52
2020/12/27 09:26:10;;;;;;;;;30.00;25.00;;;;;-2.02;81.52;99910.50;4967721;28;8843;-53
2020/12/27 09:28:40;;;;;;;;;37.00;31.50;;;;;-1.66;81.34;99911.97;4977435;28;8854;-54
2020/12/27 09:31:13;;;;;;;;;33.00;25.25;;;;;-2.04;81.47;99897.34;4978781;28;8870;-51
2020/12/27 09:33:48;;;;;;;;;19.50;15.00;;;;;-2.12;82.65;99879.88;4972496;28;8829;-52
2020/12/27 09:36:17;;;;;;;;;42.25;23.00;;;;;-2.06;82.06;99872.78;4978309;28;8854;-53
2020/12/27 09:38:46;;;;;;;;;36.25;29.25;;;;;-2.01;82.15;99880.66;4974248;28;8854;-54
2020/12/27 09:41:15;;;;;;;;;27.25;19.50;;;;;-1.93;82.12;99885.88;4973906;28;8900;-54
2020/12/27 09:43:54;;;;;;;;;36.50;27.00;;;;;-2.02;82.59;99869.28;4973709;28;8839;-52
2020/12/27 09:46:43;;;;;;;;;34.50;30.00;;;;;-2.05;81.75;99865.81;4972948;28;8834;-54
2020/12/27 09:49:29;;;;;;;;;18.50;12.00;;;;;-1.98;81.72;99867.47;4969140;28;8862;-54
2020/12/27 09:52:12;;;;;;;;;31.50;25.50;;;;;-1.80;82.65;99848.03;4973689;28;8834;-55
2020/12/27 09:54:47;;;;;;;;;39.50;25.25;;;;;-1.41;83.98;99843.28;4974769;28;8870;-52
2020/12/27 09:57:20;;;;;;;;;27.75;21.50;;;;;-1.60;81.92;99838.22;4974035;28;8845;-54
2020/12/27 09:59:53;;;;;;;;;33.25;28.50;;;;;-1.23;81.97;99836.94;4962685;28;8842;-55
2020/12/27 10:02:21;;;;;;;;;33.25;24.50;;;;;-1.10;83.29;99825.38;4974841;28;8882;-53
2020/12/27 10:04:49;;;;;;;;;24.75;18.00;;;;;-1.50;80.43;99815.28;4983841;28;8838;-51
2020/12/27 10:07:16;;;;;;;;;25.75;20.50;;;;;-1.46;80.91;99816.13;4976897;28;8853;-53
2020/12/27 10:09:43;;;;;;;;;54.50;39.50;;;;;-1.26;80.83;99818.53;4971373;28;8900;-54
2020/12/27 10:12:10;;;;;;;;;31.50;27.75;;;;;-1.32;80.89;99827.38;4972825;28;8842;-53
2020/12/27 10:14:37;;;;;;;;;34.25;24.75;;;;;-1.28;81.10;99812.41;4973106;28;8980;-55
2020/12/27 10:17:04;;;;;;;;;30.25;24.50;;;;;-1.03;81.26;99812.97;4973230;28;8851;-55
2020/12/27 10:19:32;;;;;;;;;29.50;22.50;;;;;-0.95;81.65;99811.13;4977949;28;8874;-54
2020/12/27 10:21:59;;;;;;;;;46.00;40.50;;;;;-1.07;81.92;99796.34;4972495;28;8842;-54
2020/12/27 10:24:28;;;;;;;;;46.00;39.75;;;;;-0.90;82.24;99801.41;4975472;28;9831;-54
2020/12/27 10:26:55;;;;;;;;;32.25;22.50;;;;;-0.82;81.45;99791.63;4974063;28;8857;-56
2020/12/27 10:29:22;;;;;;;;;32.00;27.50;;;;;-1.08;81.56;99789.31;4980311;28;8854;-55
2020/12/27 10:31:54;;;;;;;;;30.00;25.25;;;;;-0.94;80.74;99776.00;4973003;28;8879;-54
2020/12/27 10:34:22;;;;;;;;;27.00;20.50;;;;;-1.09;80.49;99766.50;4977309;28;8894;-56
2020/12/27 10:36:52;;;;;;;;;27.75;20.75;;;;;-1.13;81.02;99760.44;4981739;28;8841;-51
2020/12/27 10:39:19;;;;;;;;;28.25;21.75;;;;;-1.16;80.60;99744.66;4981020;28;8873;-56
2020/12/27 10:41:48;;;;;;;;;34.00;23.25;;;;;-1.03;80.15;99733.94;4979880;28;9001;-55
2020/12/27 10:44:15;;;;;;;;;30.00;18.00;;;;;-0.99;80.17;99719.84;4976166;28;8864;-57
2020/12/27 10:46:44;;;;;;;;;24.75;16.50;;;;;-1.08;79.75;99719.97;4977101;28;8854;-54
2020/12/27 10:49:12;;;;;;;;;28.50;24.25;;;;;-0.68;81.28;99731.69;4981314;28;8873;-54
2020/12/27 10:51:41;;;;;;;;;38.00;26.25;;;;;-0.86;81.06;99734.59;4977901;28;8907;-55
2020/12/27 10:54:11;;;;;;;;;32.75;22.00;;;;;-1.00;80.05;99724.25;4971920;28;8905;-57
2020/12/27 10:56:45;;;;;;;;;49.50;35.75;;;;;-0.89;80.40;99713.56;4971693;28;8896;-54
2020/12/27 10:59:16;;;;;;;;;77.00;55.25;;;;;-0.76;80.64;99707.19;4979929;28;8832;-53
2020/12/27 11:01:47;;;;;;;;;81.25;60.00;;;;;-0.68;80.49;99705.31;4975977;28;8866;-55
2020/12/27 11:04:14;;;;;;;;;83.50;63.50;;;;;-0.90;81.93;99709.16;4979845;28;8830;-52
2020/12/27 11:06:42;;;;;;;;;77.00;54.00;;;;;-0.48;82.04;99698.84;4972744;28;8868;-55
2020/12/27 11:09:09;;;;;;;;;35.00;25.00;;;;;-0.82;80.89;99702.00;4972658;28;8860;-53
2020/12/27 11:11:38;;;;;;;;;55.75;42.25;;;;;-0.71;81.26;99704.47;4959182;28;8832;-52
2020/12/27 11:14:05;;;;;;;;;62.50;46.75;;;;;-0.65;80.44;99701.75;4975904;28;8871;-57
2020/12/27 11:16:33;;;;;;;;;85.50;59.75;;;;;-0.76;81.29;99687.88;4974941;28;8970;-58
2020/12/27 11:19:01;;;;;;;;;89.00;65.00;;;;;-1.05;81.02;99680.38;4983394;28;9549;-59
2020/12/27 11:21:28;;;;;;;;;98.75;70.25;;;;;-0.78;80.38;99681.75;4972964;28;8857;-59
2020/12/27 11:23:56;;;;;;;;;90.50;64.00;;;;;-0.77;81.29;99684.34;4983716;28;9651;-59
2020/12/27 11:26:23;;;;;;;;;96.00;61.75;;;;;-0.65;80.27;99667.47;4971903;28;8872;-59
2020/12/27 11:28:50;;;;;;;;;96.50;64.75;;;;;-0.77;81.91;99660.63;4972486;28;8949;-60
2020/12/27 11:31:20;;;;;;;;;87.00;66.25;;;;;-0.88;81.67;99644.13;4972701;28;8884;-60
2020/12/27 11:33:48;;;;;;;;;86.25;62.50;;;;;-0.86;81.16;99637.06;4971631;28;8858;-59